createdAt,value
2022-11-24T00:00:06.301Z,100048.13
2022-11-24T00:02:31.914Z,100050.06
2022-11-24T00:04:57.494Z,100051.69
2022-11-24T00:07:23.073Z,100047.31
2022-11-24T00:09:48.676Z,100049.25
2022-11-24T00:12:14.280Z,100045.66
2022-11-24T00:14:39.839Z,100046.50
2022-11-24T00:17:05.401Z,100056.72
2022-11-24T00:19:30.966Z,100052.00
2022-11-24T00:21:56.508Z,100052.00
2022-11-24T00:24:22.064Z,100057.53
2022-11-24T00:26:47.602Z,100055.91
2022-11-24T00:29:13.159Z,100057.53
2022-11-24T00:31:39.468Z,100056.72
2022-11-24T00:34:06.200Z,100055.09
2022-11-24T00:36:32.290Z,100055.09
2022-11-24T00:38:58.499Z,100064.19
2022-11-24T00:41:24.328Z,100065.28
2022-11-24T00:43:49.979Z,100069.69
2022-11-24T00:46:15.766Z,100071.66
2022-11-24T00:48:41.383Z,100071.66
2022-11-24T00:51:07.624Z,100075.22
2022-11-24T00:53:33.175Z,100077.16
2022-11-24T00:55:58.726Z,100071.66
2022-11-24T00:58:24.438Z,100076.31
2022-11-24T01:00:50.270Z,100077.16
2022-11-24T01:03:16.168Z,100083.78
2022-11-24T01:05:41.711Z,100089.31
2022-11-24T01:08:07.299Z,100094.84
2022-11-24T01:10:32.851Z,100094.84
2022-11-24T01:12:58.583Z,100089.31
2022-11-24T01:15:24.144Z,100088.50
2022-11-24T01:17:49.689Z,100085.75
2022-11-24T01:20:15.246Z,100095.16
2022-11-24T01:22:41.801Z,100094.84
2022-11-24T01:25:08.123Z,100094.03
2022-11-24T01:27:33.732Z,100099.84
2022-11-24T01:29:59.283Z,100109.78
2022-11-24T01:32:24.832Z,100103.44
2022-11-24T01:34:50.392Z,100097.09
2022-11-24T01:37:15.930Z,100104.25
2022-11-24T01:39:41.483Z,100100.66
2022-11-24T01:42:07.028Z,100099.84
2022-11-24T01:44:33.330Z,100105.38
2022-11-24T01:47:00.535Z,100108.13
2022-11-24T01:49:28.188Z,100107.31
2022-11-24T01:51:55.381Z,100100.16
2022-11-24T01:54:21.970Z,100106.50
2022-11-24T01:56:48.209Z,100109.25
2022-11-24T01:59:13.854Z,100109.25
2022-11-24T02:01:39.487Z,100114.78
2022-11-24T02:04:06.073Z,100114.78
2022-11-24T02:06:31.613Z,100109.25
2022-11-24T02:08:59.962Z,100121.13
2022-11-24T02:11:26.301Z,100114.78
2022-11-24T02:13:52.379Z,100121.41
2022-11-24T02:16:17.986Z,100126.66
2022-11-24T02:18:43.572Z,100120.31
2022-11-24T02:21:09.966Z,100123.34
2022-11-24T02:23:41.955Z,100130.53
2022-11-24T02:26:10.570Z,100127.78
2022-11-24T02:28:36.120Z,100129.69
2022-11-24T02:31:01.714Z,100126.94
2022-11-24T02:33:27.548Z,100132.44
2022-11-24T02:35:53.168Z,100131.34
2022-11-24T02:38:18.785Z,100134.38
2022-11-24T02:40:46.260Z,100135.22
2022-11-24T02:43:12.873Z,100126.09
2022-11-24T02:45:38.484Z,100136.34
2022-11-24T02:48:04.173Z,100131.63
2022-11-24T02:50:29.728Z,100144.34
2022-11-24T02:52:55.267Z,100139.09
2022-11-24T02:55:20.861Z,100145.44
2022-11-24T02:57:46.423Z,100138.28
2022-11-24T03:00:12.176Z,100137.16
2022-11-24T03:02:37.985Z,100138.28
2022-11-24T03:05:03.753Z,100139.09
2022-11-24T03:07:29.339Z,100134.69
2022-11-24T03:09:54.924Z,100139.09
2022-11-24T03:12:20.465Z,100141.03
2022-11-24T03:14:46.027Z,100154.84
2022-11-24T03:17:11.976Z,100161.19
2022-11-24T03:19:37.529Z,100162.31
2022-11-24T03:22:03.233Z,100162.31
2022-11-24T03:24:28.787Z,100163.13
2022-11-24T03:26:54.330Z,100160.38
2022-11-24T03:29:19.874Z,100159.53
2022-11-24T03:31:45.420Z,100165.06
2022-11-24T03:34:10.958Z,100167.81
2022-11-24T03:36:36.511Z,100167.00
2022-11-24T03:39:02.057Z,100172.53
2022-11-24T03:41:27.606Z,100176.13
2022-11-24T03:43:53.154Z,100168.97
2022-11-24T03:46:18.755Z,100171.72
2022-11-24T03:48:44.318Z,100174.47
2022-11-24T03:51:09.904Z,100174.47
2022-11-24T03:53:35.445Z,100182.75
2022-11-24T03:56:01.320Z,100184.69
2022-11-24T03:58:26.949Z,100186.34
2022-11-24T04:00:52.714Z,100188.28
2022-11-24T04:03:18.394Z,100190.22
2022-11-24T04:05:44.218Z,100200.41
2022-11-24T04:08:09.761Z,100189.38
2022-11-24T04:10:36.097Z,100191.03
2022-11-24T04:13:02.223Z,100188.28
2022-11-24T04:15:27.784Z,100186.63
2022-11-24T04:17:53.853Z,100181.94
2022-11-24T04:20:19.685Z,100191.31
2022-11-24T04:22:45.226Z,100191.31
2022-11-24T04:25:10.781Z,100189.38
2022-11-24T04:27:36.433Z,100189.38
2022-11-24T04:30:02.811Z,100192.97
2022-11-24T04:32:28.352Z,100198.50
2022-11-24T04:34:53.907Z,100192.97
2022-11-24T04:37:19.445Z,100200.41
2022-11-24T04:39:45.543Z,100186.63
2022-11-24T04:42:11.297Z,100199.59
2022-11-24T04:44:37.045Z,100199.59
2022-11-24T04:47:02.943Z,100211.47
2022-11-24T04:49:28.513Z,100216.16
2022-11-24T04:51:54.057Z,100219.75
2022-11-24T04:54:19.614Z,100218.09
2022-11-24T04:56:45.160Z,100214.22
2022-11-24T04:59:12.954Z,100210.66
2022-11-24T05:01:38.529Z,100212.59
2022-11-24T05:04:04.173Z,100218.94
2022-11-24T05:06:29.765Z,100215.34
2022-11-24T05:08:55.314Z,100218.09
2022-11-24T05:11:20.863Z,100216.47
2022-11-24T05:13:46.408Z,100229.16
2022-11-24T05:16:12.052Z,100218.09
2022-11-24T05:18:37.671Z,100227.22
2022-11-24T05:21:03.245Z,100235.50
2022-11-24T05:23:28.786Z,100234.66
2022-11-24T05:25:56.469Z,100238.56
2022-11-24T05:28:22.012Z,100241.31
2022-11-24T05:30:47.568Z,100251.53
2022-11-24T05:33:18.093Z,100254.00
2022-11-24T05:35:44.072Z,100257.88
2022-11-24T05:38:09.850Z,100261.78
2022-11-24T05:40:35.532Z,100266.16
2022-11-24T05:43:01.078Z,100265.34
2022-11-24T05:45:26.632Z,100270.56
2022-11-24T05:47:52.443Z,100278.03
2022-11-24T05:50:18.738Z,100274.13
2022-11-24T05:52:44.405Z,100285.19
2022-11-24T05:55:10.117Z,100285.50
2022-11-24T05:57:35.668Z,100279.16
2022-11-24T06:00:01.458Z,100284.66
2022-11-24T06:02:27.181Z,100292.94
2022-11-24T06:04:52.806Z,100299.28
2022-11-24T06:07:18.474Z,100292.13
2022-11-24T06:09:44.087Z,100292.13
2022-11-24T06:12:10.102Z,100290.19
2022-11-24T06:14:35.944Z,100296.53
2022-11-24T06:17:01.766Z,100295.72
2022-11-24T06:19:27.319Z,100303.19
2022-11-24T06:21:52.897Z,100305.94
2022-11-24T06:24:18.437Z,100314.22
2022-11-24T06:26:43.995Z,100320.56
2022-11-24T06:29:09.547Z,100324.13
2022-11-24T06:31:35.166Z,100332.41
2022-11-24T06:34:00.754Z,100333.53
2022-11-24T06:36:26.358Z,100341.81
2022-11-24T06:38:51.941Z,100353.91
2022-11-24T06:41:17.687Z,100348.41
2022-11-24T06:43:43.320Z,100349.50
2022-11-24T06:46:09.026Z,100345.91
2022-11-24T06:48:34.663Z,100348.66
2022-11-24T06:51:00.579Z,100355.31
2022-11-24T06:53:26.183Z,100359.72
2022-11-24T06:55:51.737Z,100363.91
2022-11-24T06:58:17.285Z,100364.72
2022-11-24T07:00:42.888Z,100363.03
2022-11-24T07:03:12.228Z,100374.06
2022-11-24T07:05:37.806Z,100387.03
2022-11-24T07:08:03.373Z,100389.00
2022-11-24T07:10:28.970Z,100396.38
2022-11-24T07:12:54.557Z,100403.84
2022-11-24T07:15:20.114Z,100405.75
2022-11-24T07:17:45.670Z,100407.72
2022-11-24T07:20:11.213Z,100409.94
2022-11-24T07:22:36.770Z,100413.53
2022-11-24T07:25:06.313Z,100425.41
2022-11-24T07:27:32.929Z,100423.75
2022-11-24T07:29:58.482Z,100439.19
2022-11-24T07:32:24.049Z,100435.31
2022-11-24T07:34:49.585Z,100446.34
2022-11-24T07:37:15.142Z,100452.66
2022-11-24T07:39:40.925Z,100458.41
2022-11-24T07:42:07.681Z,100457.00
2022-11-24T07:44:33.443Z,100476.03
2022-11-24T07:46:59.166Z,100482.69
2022-11-24T07:49:24.714Z,100481.34
2022-11-24T07:51:50.259Z,100484.38
2022-11-24T07:54:15.805Z,100489.06
2022-11-24T07:56:41.359Z,100498.19
2022-11-24T07:59:06.907Z,100506.47
2022-11-24T08:01:32.625Z,100515.88
2022-11-24T08:03:58.375Z,100503.69
2022-11-24T08:06:27.291Z,100511.97
2022-11-24T08:08:56.239Z,100514.75
2022-11-24T08:11:21.836Z,100517.50
2022-11-24T08:13:47.421Z,100527.44
2022-11-24T08:16:14.191Z,100524.66
2022-11-24T08:18:40.005Z,100529.38
2022-11-24T08:21:05.746Z,100536.56
2022-11-24T08:23:31.374Z,100536.56
2022-11-24T08:25:59.834Z,100538.22
2022-11-24T08:28:25.398Z,100540.97
2022-11-24T08:30:50.956Z,100548.44
2022-11-24T08:33:16.511Z,100544.00
2022-11-24T08:35:42.067Z,100549.25
2022-11-24T08:38:07.620Z,100549.25
2022-11-24T08:40:33.812Z,100554.47
2022-11-24T08:42:59.500Z,100556.41
2022-11-24T08:45:25.809Z,100570.16
2022-11-24T08:47:52.801Z,100566.47
2022-11-24T08:50:18.348Z,100571.19
2022-11-24T08:52:43.922Z,100572.06
2022-11-24T08:55:09.950Z,100579.00
2022-11-24T08:57:35.509Z,100585.09
2022-11-24T09:00:01.393Z,100581.78
2022-11-24T09:02:26.958Z,100584.53
2022-11-24T09:04:52.577Z,100590.06
2022-11-24T09:07:18.205Z,100606.63
2022-11-24T09:09:43.800Z,100602.78
2022-11-24T09:12:14.278Z,100598.34
2022-11-24T09:14:40.282Z,100611.34
2022-11-24T09:17:05.871Z,100613.00
2022-11-24T09:19:31.721Z,100615.78
2022-11-24T09:21:57.459Z,100616.88
2022-11-24T09:24:23.039Z,100615.78
2022-11-24T09:26:48.590Z,100622.13
2022-11-24T09:29:14.241Z,100625.69
2022-11-24T09:31:39.833Z,100632.03
2022-11-24T09:34:06.345Z,100630.09
2022-11-24T09:36:31.898Z,100634.34
2022-11-24T09:38:57.478Z,100634.81
2022-11-24T09:41:26.774Z,100642.53
2022-11-24T09:46:53.499Z,100651.91
2022-11-24T09:49:39.013Z,100649.97
2022-11-24T09:52:08.047Z,100660.19
2022-11-24T09:54:33.601Z,100655.50
2022-11-24T09:56:59.318Z,100661.84
2022-11-24T09:59:26.585Z,100657.41
2022-11-24T10:01:52.261Z,100659.09
2022-11-24T10:04:20.310Z,100662.94
2022-11-24T10:06:51.468Z,100670.13
2022-11-24T10:09:37.172Z,100668.66
2022-11-24T10:12:22.775Z,100664.38
2022-11-24T10:14:53.128Z,100669.03
2022-11-24T10:17:38.603Z,100675.97
2022-11-24T10:20:07.537Z,100680.94
2022-11-24T10:22:52.961Z,100684.16
2022-11-24T10:25:20.524Z,100686.38
2022-11-24T10:27:46.832Z,100691.88
2022-11-24T10:30:14.684Z,100696.84
2022-11-24T10:32:42.166Z,100702.06
2022-11-24T10:35:13.160Z,100699.59
2022-11-24T10:37:40.124Z,100699.88
2022-11-24T10:40:26.966Z,100692.97
2022-11-24T10:42:57.469Z,100692.13
2022-11-24T10:45:23.027Z,100707.59
2022-11-24T10:47:48.782Z,100705.94
2022-11-24T10:50:18.531Z,100707.91
2022-11-24T10:52:44.585Z,100715.25
2022-11-24T10:55:11.499Z,100715.59
2022-11-24T10:57:37.782Z,100711.00
2022-11-24T11:00:07.425Z,100713.16
2022-11-24T11:02:34.302Z,100712.59
2022-11-24T11:05:19.812Z,100711.78
2022-11-24T11:07:46.108Z,100725.00
2022-11-24T11:10:20.087Z,100720.03
2022-11-24T11:12:45.985Z,100716.16
2022-11-24T11:15:28.632Z,100715.34
2022-11-24T11:17:56.550Z,100723.63
2022-11-24T11:20:25.526Z,100720.88
2022-11-24T11:22:51.078Z,100720.03
2022-11-24T11:25:17.889Z,100730.28
2022-11-24T11:27:43.443Z,100725.56
2022-11-24T11:36:07.769Z,100742.16
2022-11-24T11:38:34.887Z,100735.50
2022-11-24T11:41:00.433Z,100741.03
2022-11-24T11:43:26.818Z,100745.44
2022-11-24T11:45:59.202Z,100743.50
2022-11-24T11:48:42.404Z,100751.78
2022-11-24T11:51:23.623Z,100742.66
2022-11-24T11:53:54.837Z,100737.97
2022-11-24T11:56:23.809Z,100746.25
2022-11-24T11:59:09.257Z,100741.56
2022-11-24T12:01:54.689Z,100735.19
2022-11-24T12:04:40.116Z,100725.00
2022-11-24T12:07:25.600Z,100734.03
2022-11-24T12:09:55.432Z,100744.81
2022-11-24T12:12:25.484Z,100744.81
2022-11-24T12:15:04.571Z,100734.06
2022-11-24T12:17:35.230Z,100733.50
2022-11-24T12:20:20.655Z,100733.25
2022-11-24T12:22:47.491Z,100733.50
2022-11-24T12:25:22.485Z,100735.66
2022-11-24T12:27:51.567Z,100739.25
2022-11-24T12:30:17.294Z,100737.34
2022-11-24T12:32:55.232Z,100745.63
2022-11-24T12:35:27.137Z,100737.09
2022-11-24T12:37:58.412Z,100733.50
2022-11-24T12:40:35.109Z,100738.16
2022-11-24T12:43:04.027Z,100731.00
2022-11-24T12:45:33.636Z,100737.34
2022-11-24T12:48:03.645Z,100733.75
2022-11-24T12:50:29.468Z,100733.75
2022-11-24T12:53:03.388Z,100738.81
2022-11-24T12:55:29.224Z,100735.72
2022-11-24T12:58:14.721Z,100733.50
2022-11-24T13:00:52.554Z,100737.34
2022-11-24T13:03:21.535Z,100740.94
2022-11-24T13:08:22.861Z,100742.59
2022-11-24T13:10:57.480Z,100743.69
2022-11-24T13:13:25.781Z,100746.47
2022-11-24T13:18:45.865Z,100746.19
2022-11-24T13:21:31.490Z,100751.97
2022-11-24T13:23:57.561Z,100750.91
2022-11-24T13:26:27.846Z,100750.91
2022-11-24T13:29:05.675Z,100745.06
2022-11-24T13:31:34.826Z,100761.94
2022-11-24T13:34:00.414Z,100759.19
2022-11-24T13:36:29.077Z,100753.66
2022-11-24T13:38:54.625Z,100755.31
2022-11-24T13:44:16.248Z,100764.41
2022-11-24T13:47:06.323Z,100765.22
2022-11-24T13:49:40.243Z,100766.06
2022-11-24T13:52:25.715Z,100769.94
2022-11-24T13:54:51.437Z,100769.94
2022-11-24T13:57:36.931Z,100768.81
2022-11-24T14:00:02.768Z,100767.16
2022-11-24T14:02:29.488Z,100768.00
2022-11-24T14:04:55.908Z,100763.59
2022-11-24T14:07:21.956Z,100763.28
2022-11-24T14:09:49.131Z,100768.81
2022-11-24T14:12:22.744Z,100756.13
2022-11-24T14:14:49.363Z,100754.47
2022-11-24T14:17:17.648Z,100756.94
2022-11-24T14:19:44.404Z,100753.66
2022-11-24T14:22:18.163Z,100761.94
2022-11-24T14:24:44.828Z,100771.06
2022-11-24T14:27:12.785Z,100768.28
2022-11-24T14:29:38.325Z,100767.47
2022-11-24T14:32:12.471Z,100763.88
2022-11-24T14:34:38.492Z,100759.19
2022-11-24T14:37:04.242Z,100750.06
2022-11-24T14:39:30.375Z,100755.59
2022-11-24T14:42:02.803Z,100753.66
2022-11-24T14:44:33.674Z,100751.16
2022-11-24T14:47:03.455Z,100744.53
2022-11-24T14:49:29.159Z,100740.13
2022-11-24T14:51:55.413Z,100747.59
2022-11-24T14:54:20.965Z,100753.00
2022-11-24T14:57:03.398Z,100750.16
2022-11-24T14:59:30.095Z,100755.41
2022-11-24T15:01:56.196Z,100748.75
2022-11-24T15:05:01.397Z,100755.63
2022-11-24T15:07:25.564Z,100749.00
2022-11-24T15:09:51.881Z,100760.88
2022-11-24T15:12:23.344Z,100758.09
2022-11-24T15:14:50.914Z,100767.22
2022-11-24T15:17:17.374Z,100771.63
2022-11-24T15:19:43.134Z,100769.69
2022-11-24T15:22:28.563Z,100773.28
2022-11-24T15:24:54.110Z,100770.50
2022-11-24T15:27:19.661Z,100768.88
2022-11-24T15:29:45.221Z,100764.97
2022-11-24T15:32:12.908Z,100766.66
2022-11-24T15:34:38.532Z,100763.88
2022-11-24T15:37:04.077Z,100757.25
2022-11-24T15:39:29.626Z,100759.19
2022-11-24T15:41:55.180Z,100762.75
2022-11-24T15:44:20.723Z,100769.41
2022-11-24T15:46:46.333Z,100772.69
2022-11-24T15:49:11.961Z,100772.69
2022-11-24T15:51:38.267Z,100774.66
2022-11-24T15:54:05.076Z,100779.03
2022-11-24T15:56:31.631Z,100786.50
2022-11-24T15:58:57.214Z,100791.22
2022-11-24T16:01:22.938Z,100783.75
2022-11-24T16:03:49.122Z,100785.69
2022-11-24T16:06:23.402Z,100795.63
2022-11-24T16:08:50.031Z,100793.97
2022-11-24T16:11:15.630Z,100801.22
2022-11-24T16:13:41.266Z,100795.78
2022-11-24T16:16:07.059Z,100797.47
2022-11-24T16:18:34.524Z,100799.47
2022-11-24T16:21:00.084Z,100801.56
2022-11-24T16:23:25.807Z,100802.09
2022-11-24T16:25:51.397Z,100805.94
2022-11-24T16:28:17.106Z,100807.28
2022-11-24T16:30:46.751Z,100802.31
2022-11-24T16:33:12.298Z,100807.53
2022-11-24T16:35:37.860Z,100800.06
2022-11-24T16:38:03.403Z,100809.19
2022-11-24T16:40:28.946Z,100805.34
2022-11-24T16:42:55.455Z,100806.16
2022-11-24T16:45:21.026Z,100808.91
2022-11-24T16:47:46.579Z,100804.47
2022-11-24T16:50:12.147Z,100808.91
2022-11-24T16:52:37.778Z,100810.56
2022-11-24T16:55:04.199Z,100799.50
2022-11-24T16:57:29.760Z,100800.34
2022-11-24T16:59:55.301Z,100803.09
2022-11-24T17:02:20.888Z,100812.22
2022-11-24T17:04:46.486Z,100809.44
2022-11-24T17:07:13.282Z,100804.75
2022-11-24T17:09:40.745Z,100804.75
2022-11-24T17:12:06.538Z,100811.09
2022-11-24T17:14:32.277Z,100811.94
2022-11-24T17:16:58.215Z,100816.34
2022-11-24T17:19:23.781Z,100821.88
2022-11-24T17:21:49.336Z,100826.56
2022-11-24T17:24:16.784Z,100823.00
2022-11-24T17:26:48.624Z,100832.09
2022-11-24T17:29:14.591Z,100821.06
2022-11-24T17:31:40.165Z,100829.34
2022-11-24T17:34:05.729Z,100825.75
2022-11-24T17:36:32.161Z,100834.03
2022-11-24T17:38:58.232Z,100831.28
2022-11-24T17:41:23.787Z,100828.50
2022-11-24T17:43:49.765Z,100844.25
2022-11-24T17:46:15.378Z,100835.13
2022-11-24T17:48:40.939Z,100834.31
2022-11-24T17:51:07.171Z,100833.19
2022-11-24T17:53:34.575Z,100832.38
2022-11-24T17:56:00.602Z,100835.13
2022-11-24T17:58:27.769Z,100836.25
2022-11-24T18:00:53.350Z,100836.25
2022-11-24T18:03:18.932Z,100841.78
2022-11-24T18:05:44.475Z,100841.78
2022-11-24T18:08:11.260Z,100840.13
2022-11-24T18:10:36.891Z,100849.25
2022-11-24T18:13:02.442Z,100853.94
2022-11-24T18:15:27.983Z,100844.84
2022-11-24T18:17:53.930Z,100859.47
2022-11-24T18:20:19.598Z,100850.38
2022-11-24T18:25:32.339Z,100848.69
2022-11-24T18:27:57.891Z,100847.59
2022-11-24T18:30:23.436Z,100851.44
2022-11-24T18:32:48.994Z,100844.03
2022-11-24T18:35:14.532Z,100843.16
2022-11-24T18:37:43.440Z,100849.00
2022-11-24T18:40:09.120Z,100849.81
2022-11-24T18:42:34.691Z,100846.22
2022-11-24T18:45:00.237Z,100849.00
2022-11-24T18:47:25.793Z,100851.44
2022-11-24T18:49:51.341Z,100843.47
2022-11-24T18:52:16.890Z,100846.22
2022-11-24T18:54:42.425Z,100853.69
2022-11-24T18:57:07.978Z,100846.22
2022-11-24T18:59:33.523Z,100842.63
2022-11-24T19:01:59.112Z,100843.47
2022-11-24T19:04:25.382Z,100844.59
2022-11-24T19:06:50.938Z,100841.00
2022-11-24T19:09:17.811Z,100833.53
2022-11-24T19:11:44.161Z,100834.34
2022-11-24T19:14:11.326Z,100829.13
2022-11-24T19:16:37.042Z,100829.94
2022-11-24T19:19:02.838Z,100829.94
2022-11-24T19:21:29.815Z,100828.28
2022-11-24T19:23:59.776Z,100831.03
2022-11-24T19:26:28.618Z,100827.19
2022-11-24T19:28:54.162Z,100818.34
2022-11-24T19:31:19.747Z,100819.97
2022-11-24T19:33:45.377Z,100815.56
2022-11-24T19:36:12.175Z,100823.59
2022-11-24T19:38:37.867Z,100823.03
2022-11-24T19:41:04.196Z,100825.81
2022-11-24T19:43:29.999Z,100825.81
2022-11-24T19:45:59.027Z,100828.56
2022-11-24T19:48:24.613Z,100823.03
2022-11-24T19:50:56.782Z,100826.09
2022-11-24T19:53:22.364Z,100819.47
2022-11-24T19:55:47.908Z,100821.41
2022-11-24T19:58:13.450Z,100819.47
2022-11-24T20:00:38.996Z,100820.56
2022-11-24T20:03:04.551Z,100818.94
2022-11-24T20:05:30.090Z,100818.94
2022-11-24T20:07:55.677Z,100819.75
2022-11-24T20:10:21.253Z,100818.94
2022-11-24T20:12:46.808Z,100824.47
2022-11-24T20:15:12.370Z,100820.84
2022-11-24T20:17:37.927Z,100833.56
2022-11-24T20:20:03.690Z,100829.97
2022-11-24T20:22:29.246Z,100827.22
2022-11-24T20:24:54.788Z,100828.03
2022-11-24T20:27:20.361Z,100823.59
2022-11-24T20:29:47.038Z,100829.13
2022-11-24T20:32:18.453Z,100827.50
2022-11-24T20:34:44.205Z,100828.31
2022-11-24T20:37:12.552Z,100828.31
2022-11-24T20:39:38.291Z,100819.50
2022-11-24T20:42:04.028Z,100826.66
2022-11-24T20:44:29.683Z,100833.00
2022-11-24T20:46:56.183Z,100828.59
2022-11-24T20:49:22.360Z,100820.31
2022-11-24T20:51:47.987Z,100823.09
2022-11-24T20:54:13.903Z,100822.25
2022-11-24T20:56:40.568Z,100820.31
2022-11-24T20:59:06.351Z,100809.56
2022-11-24T21:01:34.259Z,100815.91
2022-11-24T21:04:00.269Z,100826.16
2022-11-24T21:06:27.178Z,100820.63
2022-11-24T21:08:52.808Z,100823.38
2022-11-24T21:11:18.654Z,100829.97
2022-11-24T21:13:44.396Z,100834.44
2022-11-24T21:16:10.792Z,100830.78
2022-11-24T21:18:36.404Z,100840.19
2022-11-24T21:21:01.958Z,100839.94
2022-11-24T21:23:27.499Z,100841.00
2022-11-24T21:25:53.051Z,100832.72
2022-11-24T21:28:18.598Z,100834.66
2022-11-24T21:30:44.147Z,100831.91
2022-11-24T21:33:09.705Z,100834.66
2022-11-24T21:35:35.490Z,100828.31
2022-11-24T21:38:01.222Z,100831.06
2022-11-24T21:40:26.766Z,100820.03
2022-11-24T21:42:52.695Z,100822.78
2022-11-24T21:45:18.239Z,100818.69
2022-11-24T21:47:45.666Z,100810.91
2022-11-24T21:50:11.219Z,100814.50
2022-11-24T21:52:36.770Z,100821.97
2022-11-24T21:55:02.778Z,100821.97
2022-11-24T21:57:28.331Z,100816.75
2022-11-24T21:59:53.885Z,100818.38
2022-11-24T22:02:19.493Z,100813.69
2022-11-24T22:04:45.105Z,100807.63
2022-11-24T22:07:10.688Z,100808.47
2022-11-24T22:09:36.256Z,100802.09
2022-11-24T22:12:01.808Z,100805.69
2022-11-24T22:14:27.375Z,100796.59
2022-11-24T22:16:52.982Z,100799.34
2022-11-24T22:19:18.569Z,100801.25
2022-11-24T22:21:44.121Z,100799.34
2022-11-24T22:24:09.775Z,100804.88
2022-11-24T22:26:35.323Z,100807.63
2022-11-24T22:29:00.892Z,100801.25
2022-11-24T22:31:27.263Z,100804.03
2022-11-24T22:33:53.163Z,100798.50
2022-11-24T22:36:20.047Z,100792.97
2022-11-24T22:38:45.937Z,100792.97
2022-11-24T22:41:12.654Z,100791.31
2022-11-24T22:43:38.907Z,100783.03
2022-11-24T22:46:05.369Z,100785.81
2022-11-24T22:48:31.326Z,100788.56
2022-11-24T22:51:00.904Z,100790.50
2022-11-24T22:53:26.457Z,100775.88
2022-11-24T22:55:51.996Z,100782.22
2022-11-24T22:58:17.535Z,100781.41
2022-11-24T23:00:43.090Z,100781.41
2022-11-24T23:03:08.664Z,100770.34
2022-11-24T23:05:34.229Z,100766.47
2022-11-24T23:07:59.783Z,100767.59
2022-11-24T23:10:25.327Z,100769.53
2022-11-24T23:12:50.920Z,100766.75
2022-11-24T23:15:16.509Z,100769.53
2022-11-24T23:17:42.064Z,100772.28
2022-11-24T23:20:07.894Z,100767.88
2022-11-24T23:22:33.444Z,100771.47
2022-11-24T23:24:58.985Z,100769.53
2022-11-24T23:27:24.542Z,100760.41
2022-11-24T23:29:50.088Z,100754.91
2022-11-24T23:32:15.640Z,100754.91
2022-11-24T23:34:41.179Z,100747.69
2022-11-24T23:37:06.732Z,100748.53
2022-11-24T23:39:32.276Z,100750.47
2022-11-24T23:41:57.822Z,100750.47
2022-11-24T23:44:23.362Z,100742.16
2022-11-24T23:46:48.915Z,100747.69
2022-11-24T23:49:14.454Z,100749.63
2022-11-24T23:51:41.174Z,100749.63
2022-11-24T23:54:06.949Z,100744.94
2022-11-24T23:56:32.909Z,100742.16
2022-11-24T23:58:59.262Z,100741.34
